sensor_id;sensor_type;location;lat;lon;timestamp;pressure;altitude;pressure_sealevel;temperature;humidity
74529;BME280;63009;52.584;5.932;2022-11-15T00:02:04;101021.97;;;5.96;93.79
74529;BME280;63009;52.584;5.932;2022-11-15T00:04:30;101018.53;;;5.94;94.02
74529;BME280;63009;52.584;5.932;2022-11-15T00:06:55;101020.31;;;5.93;93.68
74529;BME280;63009;52.584;5.932;2022-11-15T00:09:20;101013.25;;;5.95;94.28
74529;BME280;63009;52.584;5.932;2022-11-15T00:11:45;101009.75;;;5.95;94.35
74529;BME280;63009;52.584;5.932;2022-11-15T00:14:11;101009.75;;;5.95;94.04
74529;BME280;63009;52.584;5.932;2022-11-15T00:16:36;100994.25;;;5.87;94.08
74529;BME280;63009;52.584;5.932;2022-11-15T00:19:02;101008.97;;;5.93;94.66
74529;BME280;63009;52.584;5.932;2022-11-15T00:21:27;100996.66;;;5.95;94.55
74529;BME280;63009;52.584;5.932;2022-11-15T00:23:52;101007.94;;;5.97;94.76
74529;BME280;63009;52.584;5.932;2022-11-15T00:26:17;100999.25;;;5.95;94.28
74529;BME280;63009;52.584;5.932;2022-11-15T00:28:44;100986.09;;;5.97;94.80
74529;BME280;63009;52.584;5.932;2022-11-15T00:31:12;100993.03;;;5.98;94.52
74529;BME280;63009;52.584;5.932;2022-11-15T00:33:38;100994.88;;;5.95;95.19
74529;BME280;63009;52.584;5.932;2022-11-15T00:36:08;100983.59;;;5.93;94.90
74529;BME280;63009;52.584;5.932;2022-11-15T00:38:38;100997.56;;;5.94;95.06
74529;BME280;63009;52.584;5.932;2022-11-15T00:41:05;100979.25;;;5.92;95.14
74529;BME280;63009;52.584;5.932;2022-11-15T00:43:31;100974.00;;;5.92;95.48
74529;BME280;63009;52.584;5.932;2022-11-15T00:45:58;100969.69;;;5.91;95.35
74529;BME280;63009;52.584;5.932;2022-11-15T00:48:23;100965.28;;;5.92;95.32
74529;BME280;63009;52.584;5.932;2022-11-15T00:50:49;100979.88;;;5.99;95.44
74529;BME280;63009;52.584;5.932;2022-11-15T00:53:15;100972.19;;;5.94;95.59
74529;BME280;63009;52.584;5.932;2022-11-15T00:55:40;100984.38;;;5.95;95.58
74529;BME280;63009;52.584;5.932;2022-11-15T00:58:05;100983.34;;;6.00;95.87
74529;BME280;63009;52.584;5.932;2022-11-15T01:00:31;100972.84;;;6.00;95.81
74529;BME280;63009;52.584;5.932;2022-11-15T01:02:56;100972.72;;;6.03;95.82
74529;BME280;63009;52.584;5.932;2022-11-15T01:05:21;100988.41;;;6.04;96.11
74529;BME280;63009;52.584;5.932;2022-11-15T01:07:51;100956.19;;;6.01;96.04
74529;BME280;63009;52.584;5.932;2022-11-15T01:10:16;100962.88;;;6.09;96.67
74529;BME280;63009;52.584;5.932;2022-11-15T01:12:42;100960.38;;;6.06;96.55
74529;BME280;63009;52.584;5.932;2022-11-15T01:15:07;100956.94;;;6.04;97.23
74529;BME280;63009;52.584;5.932;2022-11-15T01:17:32;100955.34;;;6.00;97.99
74529;BME280;63009;52.584;5.932;2022-11-15T01:19:58;100956.91;;;6.06;97.50
74529;BME280;63009;52.584;5.932;2022-11-15T01:22:23;100959.47;;;6.07;97.47
74529;BME280;63009;52.584;5.932;2022-11-15T01:24:51;100960.31;;;6.08;97.35
74529;BME280;63009;52.584;5.932;2022-11-15T01:27:17;100963.53;;;6.14;97.57
74529;BME280;63009;52.584;5.932;2022-11-15T01:29:42;100962.75;;;6.12;97.98
74529;BME280;63009;52.584;5.932;2022-11-15T01:32:07;100955.59;;;6.16;97.76
74529;BME280;63009;52.584;5.932;2022-11-15T01:34:33;100958.09;;;6.20;97.94
74529;BME280;63009;52.584;5.932;2022-11-15T01:36:58;100955.34;;;6.23;98.21
74529;BME280;63009;52.584;5.932;2022-11-15T01:39:23;100935.31;;;6.21;97.88
74529;BME280;63009;52.584;5.932;2022-11-15T01:41:49;100939.41;;;6.28;97.91
74529;BME280;63009;52.584;5.932;2022-11-15T01:47:01;100933.72;;;6.39;98.46
74529;BME280;63009;52.584;5.932;2022-11-15T01:49:30;100936.28;;;6.40;97.99
74529;BME280;63009;52.584;5.932;2022-11-15T01:51:57;100929.28;;;6.41;98.49
74529;BME280;63009;52.584;5.932;2022-11-15T01:54:23;100944.91;;;6.44;98.43
74529;BME280;63009;52.584;5.932;2022-11-15T01:57:04;100928.16;;;6.46;98.68
74529;BME280;63009;52.584;5.932;2022-11-15T01:59:31;100928.13;;;6.48;98.42
74529;BME280;63009;52.584;5.932;2022-11-15T02:01:58;100921.28;;;6.44;99.22
74529;BME280;63009;52.584;5.932;2022-11-15T02:04:32;100933.38;;;6.48;98.94
74529;BME280;63009;52.584;5.932;2022-11-15T02:07:01;100923.81;;;6.45;98.77
74529;BME280;63009;52.584;5.932;2022-11-15T02:09:29;100921.97;;;6.49;99.48
74529;BME280;63009;52.584;5.932;2022-11-15T02:11:55;100923.47;;;6.54;99.37
74529;BME280;63009;52.584;5.932;2022-11-15T02:14:22;100927.06;;;6.52;99.50
74529;BME280;63009;52.584;5.932;2022-11-15T02:17:12;100914.59;;;6.57;99.84
74529;BME280;63009;52.584;5.932;2022-11-15T02:20:08;100909.34;;;6.57;100.00
74529;BME280;63009;52.584;5.932;2022-11-15T02:28:42;100912.53;;;6.65;100.00
74529;BME280;63009;52.584;5.932;2022-11-15T02:34:13;100896.84;;;6.64;100.00
74529;BME280;63009;52.584;5.932;2022-11-15T02:39:42;100904.31;;;6.73;100.00
74529;BME280;63009;52.584;5.932;2022-11-15T02:42:14;100891.97;;;6.75;100.00
74529;BME280;63009;52.584;5.932;2022-11-15T02:45:03;100897.13;;;6.78;100.00
74529;BME280;63009;52.584;5.932;2022-11-15T02:47:33;100889.25;;;6.78;100.00
74529;BME280;63009;52.584;5.932;2022-11-15T02:50:06;100892.59;;;6.81;100.00
74529;BME280;63009;52.584;5.932;2022-11-15T02:52:33;100896.84;;;6.84;100.00
74529;BME280;63009;52.584;5.932;2022-11-15T02:55:00;100887.06;;;6.88;100.00
74529;BME280;63009;52.584;5.932;2022-11-15T03:00:39;100876.97;;;6.99;100.00
74529;BME280;63009;52.584;5.932;2022-11-15T03:03:37;100880.25;;;7.04;100.00
74529;BME280;63009;52.584;5.932;2022-11-15T03:08:57;100861.59;;;7.10;100.00
74529;BME280;63009;52.584;5.932;2022-11-15T03:11:28;100855.97;;;7.18;100.00
74529;BME280;63009;52.584;5.932;2022-11-15T03:14:17;100853.09;;;7.24;100.00
74529;BME280;63009;52.584;5.932;2022-11-15T03:17:11;100849.34;;;7.29;100.00
74529;BME280;63009;52.584;5.932;2022-11-15T03:22:11;100844.84;;;7.31;100.00
74529;BME280;63009;52.584;5.932;2022-11-15T03:24:39;100841.19;;;7.35;100.00
74529;BME280;63009;52.584;5.932;2022-11-15T03:27:06;100840.13;;;7.39;100.00
74529;BME280;63009;52.584;5.932;2022-11-15T03:29:37;100844.38;;;7.42;100.00
74529;BME280;63009;52.584;5.932;2022-11-15T03:32:09;100846.88;;;7.45;100.00
74529;BME280;63009;52.584;5.932;2022-11-15T03:37:05;100828.41;;;7.47;100.00
74529;BME280;63009;52.584;5.932;2022-11-15T03:39:32;100830.06;;;7.49;100.00
74529;BME280;63009;52.584;5.932;2022-11-15T03:47:20;100817.38;;;7.57;100.00
74529;BME280;63009;52.584;5.932;2022-11-15T03:49:50;100831.25;;;7.61;100.00
74529;BME280;63009;52.584;5.932;2022-11-15T03:52:18;100833.81;;;7.62;100.00
74529;BME280;63009;52.584;5.932;2022-11-15T03:54:48;100834.44;;;7.67;100.00
74529;BME280;63009;52.584;5.932;2022-11-15T03:57:14;100832.59;;;7.69;100.00
74529;BME280;63009;52.584;5.932;2022-11-15T03:59:39;100822.84;;;7.71;100.00
74529;BME280;63009;52.584;5.932;2022-11-15T04:02:04;100830.56;;;7.76;100.00
74529;BME280;63009;52.584;5.932;2022-11-15T04:04:30;100824.34;;;7.77;100.00
74529;BME280;63009;52.584;5.932;2022-11-15T04:06:55;100833.97;;;7.78;100.00
74529;BME280;63009;52.584;5.932;2022-11-15T04:09:20;100831.88;;;7.85;100.00
74529;BME280;63009;52.584;5.932;2022-11-15T04:11:45;100838.06;;;7.84;100.00
74529;BME280;63009;52.584;5.932;2022-11-15T04:14:11;100838.75;;;7.87;100.00
74529;BME280;63009;52.584;5.932;2022-11-15T04:16:36;100825.56;;;7.89;100.00
74529;BME280;63009;52.584;5.932;2022-11-15T04:19:01;100820.31;;;7.89;100.00
74529;BME280;63009;52.584;5.932;2022-11-15T04:21:45;100835.09;;;7.91;100.00
74529;BME280;63009;52.584;5.932;2022-11-15T04:24:29;100829.50;;;7.97;100.00
74529;BME280;63009;52.584;5.932;2022-11-15T04:26:54;100841.56;;;8.03;100.00
74529;BME280;63009;52.584;5.932;2022-11-15T04:29:19;100830.28;;;7.99;100.00
74529;BME280;63009;52.584;5.932;2022-11-15T04:32:04;100833.41;;;8.08;100.00
74529;BME280;63009;52.584;5.932;2022-11-15T04:34:30;100834.28;;;8.08;100.00
74529;BME280;63009;52.584;5.932;2022-11-15T04:36:55;100841.88;;;8.14;100.00
74529;BME280;63009;52.584;5.932;2022-11-15T04:39:40;100819.03;;;8.15;100.00
74529;BME280;63009;52.584;5.932;2022-11-15T04:42:06;100831.25;;;8.16;100.00
74529;BME280;63009;52.584;5.932;2022-11-15T04:44:31;100822.50;;;8.15;100.00
74529;BME280;63009;52.584;5.932;2022-11-15T04:46:56;100823.22;;;8.19;100.00
74529;BME280;63009;52.584;5.932;2022-11-15T04:49:22;100822.22;;;8.21;100.00
74529;BME280;63009;52.584;5.932;2022-11-15T04:51:47;100831.66;;;8.25;100.00
74529;BME280;63009;52.584;5.932;2022-11-15T04:54:13;100814.09;;;8.26;100.00
74529;BME280;63009;52.584;5.932;2022-11-15T04:56:38;100823.63;;;8.28;100.00
74529;BME280;63009;52.584;5.932;2022-11-15T04:59:03;100819.19;;;8.29;100.00
74529;BME280;63009;52.584;5.932;2022-11-15T05:01:28;100823.38;;;8.35;100.00
74529;BME280;63009;52.584;5.932;2022-11-15T05:03:54;100819.81;;;8.36;100.00
74529;BME280;63009;52.584;5.932;2022-11-15T05:06:38;100820.00;;;8.31;100.00
74529;BME280;63009;52.584;5.932;2022-11-15T05:09:03;100812.75;;;8.36;100.00
74529;BME280;63009;52.584;5.932;2022-11-15T05:11:28;100803.91;;;8.37;100.00
74529;BME280;63009;52.584;5.932;2022-11-15T05:13:54;100806.31;;;8.42;100.00
74529;BME280;63009;52.584;5.932;2022-11-15T05:16:19;100817.50;;;8.47;100.00
74529;BME280;63009;52.584;5.932;2022-11-15T05:18:44;100820.19;;;8.45;100.00
74529;BME280;63009;52.584;5.932;2022-11-15T05:21:12;100805.94;;;8.49;100.00
74529;BME280;63009;52.584;5.932;2022-11-15T05:23:38;100824.22;;;8.52;100.00
74529;BME280;63009;52.584;5.932;2022-11-15T05:26:05;100815.16;;;8.58;100.00
74529;BME280;63009;52.584;5.932;2022-11-15T05:28:31;100809.75;;;8.61;100.00
74529;BME280;63009;52.584;5.932;2022-11-15T05:31:05;100811.53;;;8.60;100.00
74529;BME280;63009;52.584;5.932;2022-11-15T05:33:31;100801.59;;;8.66;100.00
74529;BME280;63009;52.584;5.932;2022-11-15T05:36:02;100812.81;;;8.69;100.00
74529;BME280;63009;52.584;5.932;2022-11-15T05:38:29;100812.19;;;8.81;100.00
74529;BME280;63009;52.584;5.932;2022-11-15T05:40:54;100821.91;;;8.81;100.00
74529;BME280;63009;52.584;5.932;2022-11-15T05:43:20;100819.41;;;8.78;100.00
74529;BME280;63009;52.584;5.932;2022-11-15T05:45:46;100817.63;;;8.78;100.00
74529;BME280;63009;52.584;5.932;2022-11-15T05:48:12;100823.34;;;8.86;100.00
74529;BME280;63009;52.584;5.932;2022-11-15T05:50:39;100824.22;;;8.87;100.00
74529;BME280;63009;52.584;5.932;2022-11-15T05:53:07;100831.13;;;8.89;100.00
74529;BME280;63009;52.584;5.932;2022-11-15T05:55:32;100826.63;;;8.91;100.00
74529;BME280;63009;52.584;5.932;2022-11-15T05:57:59;100838.00;;;8.92;100.00
74529;BME280;63009;52.584;5.932;2022-11-15T06:00:25;100828.41;;;8.91;100.00
74529;BME280;63009;52.584;5.932;2022-11-15T06:02:50;100829.94;;;8.95;100.00
74529;BME280;63009;52.584;5.932;2022-11-15T06:05:15;100841.16;;;8.99;100.00
74529;BME280;63009;52.584;5.932;2022-11-15T06:07:40;100837.75;;;8.97;100.00
74529;BME280;63009;52.584;5.932;2022-11-15T06:10:06;100834.03;;;9.01;100.00
74529;BME280;63009;52.584;5.932;2022-11-15T06:12:32;100849.94;;;8.99;100.00
74529;BME280;63009;52.584;5.932;2022-11-15T06:14:57;100843.59;;;9.03;100.00
74529;BME280;63009;52.584;5.932;2022-11-15T06:17:22;100852.00;;;9.10;100.00
74529;BME280;63009;52.584;5.932;2022-11-15T06:19:47;100858.06;;;9.12;100.00
74529;BME280;63009;52.584;5.932;2022-11-15T06:22:13;100856.34;;;9.11;100.00
74529;BME280;63009;52.584;5.932;2022-11-15T06:24:38;100851.00;;;9.12;100.00
74529;BME280;63009;52.584;5.932;2022-11-15T06:27:03;100850.00;;;9.15;100.00
74529;BME280;63009;52.584;5.932;2022-11-15T06:29:28;100856.81;;;9.19;100.00
74529;BME280;63009;52.584;5.932;2022-11-15T06:31:54;100853.94;;;9.23;100.00
74529;BME280;63009;52.584;5.932;2022-11-15T06:34:19;100865.16;;;9.27;100.00
74529;BME280;63009;52.584;5.932;2022-11-15T06:36:44;100865.88;;;9.31;100.00
74529;BME280;63009;52.584;5.932;2022-11-15T06:39:09;100864.94;;;9.32;100.00
74529;BME280;63009;52.584;5.932;2022-11-15T06:41:35;100864.31;;;9.27;100.00
74529;BME280;63009;52.584;5.932;2022-11-15T06:44:01;100861.69;;;9.27;100.00
74529;BME280;63009;52.584;5.932;2022-11-15T06:46:26;100857.16;;;9.29;100.00
74529;BME280;63009;52.584;5.932;2022-11-15T06:48:53;100866.81;;;9.30;100.00
74529;BME280;63009;52.584;5.932;2022-11-15T06:51:18;100860.91;;;9.25;100.00
74529;BME280;63009;52.584;5.932;2022-11-15T06:53:44;100866.00;;;9.28;100.00
74529;BME280;63009;52.584;5.932;2022-11-15T06:56:09;100879.06;;;9.31;100.00
74529;BME280;63009;52.584;5.932;2022-11-15T06:58:35;100874.63;;;9.31;100.00
74529;BME280;63009;52.584;5.932;2022-11-15T07:01:08;100874.56;;;9.33;100.00
74529;BME280;63009;52.584;5.932;2022-11-15T07:03:35;100873.00;;;9.29;100.00
74529;BME280;63009;52.584;5.932;2022-11-15T07:06:01;100876.34;;;9.32;100.00
74529;BME280;63009;52.584;5.932;2022-11-15T07:08:27;100872.00;;;9.31;100.00
74529;BME280;63009;52.584;5.932;2022-11-15T07:10:53;100881.44;;;9.35;100.00
74529;BME280;63009;52.584;5.932;2022-11-15T07:13:18;100877.03;;;9.36;100.00
74529;BME280;63009;52.584;5.932;2022-11-15T07:15:44;100871.75;;;9.36;100.00
74529;BME280;63009;52.584;5.932;2022-11-15T07:18:09;100875.31;;;9.35;100.00
74529;BME280;63009;52.584;5.932;2022-11-15T07:20:34;100888.34;;;9.38;100.00
74529;BME280;63009;52.584;5.932;2022-11-15T07:23:01;100872.78;;;9.33;100.00
74529;BME280;63009;52.584;5.932;2022-11-15T07:25:27;100886.63;;;9.37;100.00
74529;BME280;63009;52.584;5.932;2022-11-15T07:27:57;100874.38;;;9.36;100.00
74529;BME280;63009;52.584;5.932;2022-11-15T07:30:22;100881.28;;;9.38;100.00
74529;BME280;63009;52.584;5.932;2022-11-15T07:32:55;100882.13;;;9.39;100.00
74529;BME280;63009;52.584;5.932;2022-11-15T07:35:21;100878.56;;;9.40;100.00
74529;BME280;63009;52.584;5.932;2022-11-15T07:37:56;100880.34;;;9.39;100.00
74529;BME280;63009;52.584;5.932;2022-11-15T07:40:22;100890.81;;;9.41;100.00
74529;BME280;63009;52.584;5.932;2022-11-15T07:42:47;100884.94;;;9.36;100.00
74529;BME280;63009;52.584;5.932;2022-11-15T07:45:23;100891.66;;;9.41;100.00
74529;BME280;63009;52.584;5.932;2022-11-15T07:47:50;100888.88;;;9.44;100.00
74529;BME280;63009;52.584;5.932;2022-11-15T07:50:17;100886.31;;;9.43;100.00
74529;BME280;63009;52.584;5.932;2022-11-15T07:52:42;100880.97;;;9.44;100.00
74529;BME280;63009;52.584;5.932;2022-11-15T07:55:08;100881.81;;;9.45;100.00
74529;BME280;63009;52.584;5.932;2022-11-15T07:57:33;100873.66;;;9.49;100.00
74529;BME280;63009;52.584;5.932;2022-11-15T07:59:59;100872.56;;;9.53;100.00
74529;BME280;63009;52.584;5.932;2022-11-15T08:02:24;100866.34;;;9.55;100.00
74529;BME280;63009;52.584;5.932;2022-11-15T08:04:49;100882.03;;;9.58;100.00
74529;BME280;63009;52.584;5.932;2022-11-15T08:07:14;100875.47;;;9.65;100.00
74529;BME280;63009;52.584;5.932;2022-11-15T08:09:40;100884.06;;;9.68;100.00
74529;BME280;63009;52.584;5.932;2022-11-15T08:12:05;100884.78;;;9.72;100.00
74529;BME280;63009;52.584;5.932;2022-11-15T08:14:30;100893.13;;;9.80;100.00
74529;BME280;63009;52.584;5.932;2022-11-15T08:16:56;100891.06;;;9.85;100.00
74529;BME280;63009;52.584;5.932;2022-11-15T08:19:21;100893.66;;;9.87;100.00
74529;BME280;63009;52.584;5.932;2022-11-15T08:21:47;100887.66;;;9.83;100.00
74529;BME280;63009;52.584;5.932;2022-11-15T08:24:12;100899.44;;;9.93;100.00
74529;BME280;63009;52.584;5.932;2022-11-15T08:26:38;100889.91;;;9.91;100.00
74529;BME280;63009;52.584;5.932;2022-11-15T08:29:03;100881.81;;;9.94;100.00
74529;BME280;63009;52.584;5.932;2022-11-15T08:31:28;100873.72;;;9.97;100.00
74529;BME280;63009;52.584;5.932;2022-11-15T08:33:54;100873.63;;;9.98;100.00
74529;BME280;63009;52.584;5.932;2022-11-15T08:36:19;100873.38;;;10.03;100.00
74529;BME280;63009;52.584;5.932;2022-11-15T08:38:45;100863.66;;;10.03;100.00
74529;BME280;63009;52.584;5.932;2022-11-15T08:41:13;100874.63;;;10.11;100.00
74529;BME280;63009;52.584;5.932;2022-11-15T08:43:41;100870.22;;;10.12;100.00
74529;BME280;63009;52.584;5.932;2022-11-15T08:46:11;100869.03;;;10.18;100.00
74529;BME280;63009;52.584;5.932;2022-11-15T08:48:37;100864.50;;;10.20;100.00
74529;BME280;63009;52.584;5.932;2022-11-15T08:51:02;100878.19;;;10.28;100.00
74529;BME280;63009;52.584;5.932;2022-11-15T08:53:28;100873.56;;;10.31;100.00
74529;BME280;63009;52.584;5.932;2022-11-15T08:55:53;100870.84;;;10.33;100.00
74529;BME280;63009;52.584;5.932;2022-11-15T08:58:18;100857.53;;;10.34;100.00
74529;BME280;63009;52.584;5.932;2022-11-15T09:00:43;100868.78;;;10.38;100.00
74529;BME280;63009;52.584;5.932;2022-11-15T09:03:09;100847.16;;;10.31;100.00
74529;BME280;63009;52.584;5.932;2022-11-15T09:05:36;100858.03;;;10.41;100.00
74529;BME280;63009;52.584;5.932;2022-11-15T09:08:01;100854.53;;;10.40;100.00
74529;BME280;63009;52.584;5.932;2022-11-15T09:10:26;100854.47;;;10.42;100.00
74529;BME280;63009;52.584;5.932;2022-11-15T09:12:52;100846.44;;;10.44;100.00
74529;BME280;63009;52.584;5.932;2022-11-15T09:15:17;100847.53;;;10.39;100.00
74529;BME280;63009;52.584;5.932;2022-11-15T09:17:42;100841.75;;;10.49;100.00
74529;BME280;63009;52.584;5.932;2022-11-15T09:20:08;100847.13;;;10.47;100.00
74529;BME280;63009;52.584;5.932;2022-11-15T09:22:34;100839.28;;;10.46;100.00
74529;BME280;63009;52.584;5.932;2022-11-15T09:24:59;100841.06;;;10.45;100.00
74529;BME280;63009;52.584;5.932;2022-11-15T09:27:28;100837.22;;;10.51;100.00
74529;BME280;63009;52.584;5.932;2022-11-15T09:29:54;100827.78;;;10.47;100.00
74529;BME280;63009;52.584;5.932;2022-11-15T09:32:19;100839.75;;;10.52;100.00
74529;BME280;63009;52.584;5.932;2022-11-15T09:34:44;100838.56;;;10.58;100.00
74529;BME280;63009;52.584;5.932;2022-11-15T09:37:10;100834.22;;;10.57;100.00
74529;BME280;63009;52.584;5.932;2022-11-15T09:39:35;100836.78;;;10.58;100.00
74529;BME280;63009;52.584;5.932;2022-11-15T09:42:20;100839.25;;;10.61;100.00
74529;BME280;63009;52.584;5.932;2022-11-15T09:45:06;100836.22;;;10.67;100.00
74529;BME280;63009;52.584;5.932;2022-11-15T09:50:15;100837.66;;;10.73;100.00
74529;BME280;63009;52.584;5.932;2022-11-15T09:52:44;100830.31;;;10.78;99.96
74529;BME280;63009;52.584;5.932;2022-11-15T09:55:11;100830.13;;;10.81;100.00
74529;BME280;63009;52.584;5.932;2022-11-15T10:00:28;100827.59;;;10.94;98.83
74529;BME280;63009;52.584;5.932;2022-11-15T10:03:14;100837.13;;;10.96;98.70
74529;BME280;63009;52.584;5.932;2022-11-15T10:05:43;100819.47;;;10.97;98.13
74529;BME280;63009;52.584;5.932;2022-11-15T10:08:36;100826.00;;;11.06;97.35
74529;BME280;63009;52.584;5.932;2022-11-15T10:11:23;100822.72;;;11.16;96.93
74529;BME280;63009;52.584;5.932;2022-11-15T10:13:51;100817.53;;;11.15;96.58
74529;BME280;63009;52.584;5.932;2022-11-15T10:24:19;100811.66;;;11.38;94.93
74529;BME280;63009;52.584;5.932;2022-11-15T10:26:48;100800.97;;;11.40;93.69
74529;BME280;63009;52.584;5.932;2022-11-15T10:29:18;100802.69;;;11.41;93.50
74529;BME280;63009;52.584;5.932;2022-11-15T10:31:44;100811.09;;;11.47;93.05
74529;BME280;63009;52.584;5.932;2022-11-15T10:34:15;100785.56;;;11.46;92.47
74529;BME280;63009;52.584;5.932;2022-11-15T10:36:55;100787.66;;;11.55;92.45
74529;BME280;63009;52.584;5.932;2022-11-15T10:39:21;100785.56;;;11.60;92.57
74529;BME280;63009;52.584;5.932;2022-11-15T10:41:46;100795.38;;;11.73;91.31
74529;BME280;63009;52.584;5.932;2022-11-15T10:44:30;100789.59;;;11.80;91.13
74529;BME280;63009;52.584;5.932;2022-11-15T10:49:23;100775.50;;;11.80;89.26
74529;BME280;63009;52.584;5.932;2022-11-15T10:52:16;100771.22;;;11.92;88.89
74529;BME280;63009;52.584;5.932;2022-11-15T10:54:47;100771.22;;;11.92;88.04
74529;BME280;63009;52.584;5.932;2022-11-15T10:57:19;100773.56;;;11.96;87.01
74529;BME280;63009;52.584;5.932;2022-11-15T10:59:52;100772.75;;;12.08;86.23
74529;BME280;63009;52.584;5.932;2022-11-15T11:02:38;100768.97;;;12.12;86.81
74529;BME280;63009;52.584;5.932;2022-11-15T11:05:24;100761.34;;;12.21;85.89
74529;BME280;63009;52.584;5.932;2022-11-15T11:10:24;100753.44;;;12.33;85.68
74529;BME280;63009;52.584;5.932;2022-11-15T11:12:49;100740.53;;;12.41;84.34
74529;BME280;63009;52.584;5.932;2022-11-15T11:15:16;100746.81;;;12.53;82.83
74529;BME280;63009;52.584;5.932;2022-11-15T11:17:51;100743.50;;;12.49;81.00
74529;BME280;63009;52.584;5.932;2022-11-15T11:30:22;100724.66;;;12.67;79.17
74529;BME280;63009;52.584;5.932;2022-11-15T11:37:57;100724.72;;;12.65;79.29
74529;BME280;63009;52.584;5.932;2022-11-15T11:40:29;100722.94;;;12.66;79.47
74529;BME280;63009;52.584;5.932;2022-11-15T11:43:32;100724.09;;;12.74;78.71
74529;BME280;63009;52.584;5.932;2022-11-15T11:48:47;100717.84;;;12.75;78.99
74529;BME280;63009;52.584;5.932;2022-11-15T11:54:11;100724.72;;;12.65;78.61
74529;BME280;63009;52.584;5.932;2022-11-15T11:56:39;100724.53;;;12.56;79.37
74529;BME280;63009;52.584;5.932;2022-11-15T11:59:28;100735.16;;;12.56;79.58
74529;BME280;63009;52.584;5.932;2022-11-15T12:01:57;100717.94;;;12.48;79.76
74529;BME280;63009;52.584;5.932;2022-11-15T12:04:36;100719.22;;;12.56;79.82
74529;BME280;63009;52.584;5.932;2022-11-15T12:07:17;100724.44;;;12.57;79.28
74529;BME280;63009;52.584;5.932;2022-11-15T12:10:04;100713.09;;;12.55;78.53
74529;BME280;63009;52.584;5.932;2022-11-15T12:13:06;100714.13;;;12.53;79.28
74529;BME280;63009;52.584;5.932;2022-11-15T12:15:41;100714.22;;;12.51;79.03
74529;BME280;63009;52.584;5.932;2022-11-15T12:18:12;100706.16;;;12.53;79.77
74529;BME280;63009;52.584;5.932;2022-11-15T12:20:42;100705.13;;;12.55;79.68
74529;BME280;63009;52.584;5.932;2022-11-15T12:23:15;100701.41;;;12.58;79.66
74529;BME280;63009;52.584;5.932;2022-11-15T12:25:47;100704.19;;;12.56;79.83
74529;BME280;63009;52.584;5.932;2022-11-15T12:31:10;100697.91;;;12.44;80.16
74529;BME280;63009;52.584;5.932;2022-11-15T12:33:40;100680.41;;;12.42;79.68
74529;BME280;63009;52.584;5.932;2022-11-15T12:36:34;100685.72;;;12.42;78.99
74529;BME280;63009;52.584;5.932;2022-11-15T12:38:58;100674.16;;;12.43;79.08
74529;BME280;63009;52.584;5.932;2022-11-15T12:41:27;100683.28;;;12.39;79.25
74529;BME280;63009;52.584;5.932;2022-11-15T12:43:53;100665.97;;;12.33;75.59
74529;BME280;63009;52.584;5.932;2022-11-15T12:46:22;100676.19;;;12.39;75.19
74529;BME280;63009;52.584;5.932;2022-11-15T12:48:54;100660.06;;;12.30;75.05
74529;BME280;63009;52.584;5.932;2022-11-15T12:51:21;100649.56;;;12.28;76.76
74529;BME280;63009;52.584;5.932;2022-11-15T12:53:47;100671.28;;;12.33;76.70
74529;BME280;63009;52.584;5.932;2022-11-15T13:06:48;100645.63;;;12.21;77.05
74529;BME280;63009;52.584;5.932;2022-11-15T13:11:58;100630.56;;;12.09;76.99
74529;BME280;63009;52.584;5.932;2022-11-15T13:14:46;100631.41;;;12.09;77.14
74529;BME280;63009;52.584;5.932;2022-11-15T13:19:45;100620.16;;;12.06;75.50
74529;BME280;63009;52.584;5.932;2022-11-15T13:22:11;100625.06;;;11.99;75.25
74529;BME280;63009;52.584;5.932;2022-11-15T13:24:56;100615.53;;;11.97;73.92
74529;BME280;63009;52.584;5.932;2022-11-15T13:27:21;100621.00;;;11.94;73.59
74529;BME280;63009;52.584;5.932;2022-11-15T13:29:47;100612.41;;;11.90;73.49
74529;BME280;63009;52.584;5.932;2022-11-15T13:32:13;100617.19;;;11.85;73.89
74529;BME280;63009;52.584;5.932;2022-11-15T13:34:43;100608.41;;;11.84;74.33
74529;BME280;63009;52.584;5.932;2022-11-15T13:37:28;100608.97;;;11.75;74.65
74529;BME280;63009;52.584;5.932;2022-11-15T13:39:55;100603.16;;;11.70;75.51
74529;BME280;63009;52.584;5.932;2022-11-15T13:42:35;100597.19;;;11.67;75.86
74529;BME280;63009;52.584;5.932;2022-11-15T13:45:03;100599.31;;;11.62;76.04
74529;BME280;63009;52.584;5.932;2022-11-15T13:47:29;100602.16;;;11.58;75.83
74529;BME280;63009;52.584;5.932;2022-11-15T13:49:57;100591.84;;;11.54;75.82
74529;BME280;63009;52.584;5.932;2022-11-15T13:52:27;100593.59;;;11.55;76.15
74529;BME280;63009;52.584;5.932;2022-11-15T13:57:53;100589.13;;;11.55;74.93
74529;BME280;63009;52.584;5.932;2022-11-15T14:00:35;100587.44;;;11.54;74.74
74529;BME280;63009;52.584;5.932;2022-11-15T14:03:07;100575.34;;;11.50;73.58
74529;BME280;63009;52.584;5.932;2022-11-15T14:05:33;100567.19;;;11.53;71.65
74529;BME280;63009;52.584;5.932;2022-11-15T14:08:02;100564.34;;;11.44;71.98
74529;BME280;63009;52.584;5.932;2022-11-15T14:10:33;100566.03;;;11.45;71.87
74529;BME280;63009;52.584;5.932;2022-11-15T14:13:00;100556.69;;;11.39;72.64
74529;BME280;63009;52.584;5.932;2022-11-15T14:15:29;100561.78;;;11.42;72.90
74529;BME280;63009;52.584;5.932;2022-11-15T14:17:55;100561.03;;;11.40;72.65
74529;BME280;63009;52.584;5.932;2022-11-15T14:22:56;100540.38;;;11.33;74.41
74529;BME280;63009;52.584;5.932;2022-11-15T14:25:24;100552.22;;;11.27;74.77
74529;BME280;63009;52.584;5.932;2022-11-15T14:28:27;100537.69;;;11.20;75.28
74529;BME280;63009;52.584;5.932;2022-11-15T14:30:55;100528.25;;;11.16;76.03
74529;BME280;63009;52.584;5.932;2022-11-15T14:35:53;100533.19;;;11.08;76.61
74529;BME280;63009;52.584;5.932;2022-11-15T14:38:20;100527.56;;;10.99;76.75